Date,TemperatureHighF,TemperatureAvgF,TemperatureLowF,DewpointHighF,DewpointAvgF,DewpointLowF,HumidityHigh,HumidityAvg,HumidityLow,PressureMaxIn,PressureMinIn,WindSpeedMaxMPH,WindSpeedAvgMPH,GustSpeedMaxMPH,PrecipitationSumIn
2013-3-1,34,28,22,31,25,16,96,88,73,0.00,40.00,39,30,52,0.04
2013-3-2,43,38,30,30,27,22,94,66,47,0.00,40.00,39,28,50,0.00
2013-3-3,41,34,31,33,29,22,99,81,47,0.00,40.00,42,31,55,0.60
2013-3-4,31,20,12,27,17,8,99,88,76,0.00,40.00,34,18,44,0.29
2013-3-5,42,29,15,16,7,0,85,44,23,0.00,40.00,44,23,55,0.00
2013-3-6,50,41,33,22,16,1,42,35,24,0.00,40.00,31,17,40,0.00
2013-3-7,48,39,31,33,26,18,86,61,41,0.00,40.00,40,11,53,0.00
2013-3-8,50,37,27,32,24,18,97,61,31,0.00,40.00,16,6,20,0.01
2013-3-9,32,25,17,31,24,17,99,95,82,0.00,40.00,12,5,19,0.31
2013-3-10,35,26,17,24,18,11,99,74,44,0.00,40.00,37,19,52,0.02
2013-3-11,31,27,21,30,23,19,99,85,66,0.00,40.00,38,22,50,0.24
2013-3-12,36,28,17,31,26,17,99,90,77,0.00,40.00,35,21,46,0.04
2013-3-13,45,39,33,33,30,29,90,71,56,0.00,40.00,43,31,52,0.00
2013-3-14,51,45,39,30,27,23,63,49,40,0.00,40.00,33,26,44,0.00
2013-3-15,53,48,40,33,26,22,75,41,31,0.00,40.00,38,28,49,0.00
2013-3-16,47,40,29,31,22,12,92,51,29,0.00,40.00,33,18,43,0.00
2013-3-17,36,30,18,29,16,8,99,58,39,0.00,40.00,48,28,66,0.02
2013-3-18,33,23,15,18,12,8,76,62,42,0.00,40.00,39,28,57,0.00
2013-3-19,36,27,17,14,8,0,71,47,25,0.00,40.00,36,23,49,0.00
2013-3-20,46,34,26,33,16,1,99,53,27,0.00,40.00,43,26,55,0.20
2013-3-21,35,29,18,32,26,10,99,88,70,0.00,40.00,43,28,54,0.30
2013-3-22,26,18,15,17,11,6,96,74,44,0.00,40.00,30,18,37,0.01
2013-3-23,15,11,8,14,11,8,99,99,96,0.00,40.00,17,11,21,0.03
2013-3-25,29,20,8,15,9,3,86,62,45,0.00,40.00,18,11,23,0.00
2013-3-26,38,30,19,33,22,3,99,74,45,0.00,40.00,34,21,43,0.09
2013-3-27,46,36,26,33,29,25,96,75,51,0.00,40.00,23,11,30,0.01
2013-3-28,53,42,33,31,28,25,77,58,39,0.00,40.00,19,11,26,0.00
2013-3-29,51,42,34,42,32,29,96,69,49,0.00,40.00,26,15,39,0.03
2013-3-30,50,40,31,34,29,-100,82,67,42,0.00,40.00,32,15,41,0.00
2013-3-31,53,41,28,29,23,18,84,49,30,0.00,40.00,39,20,47,0.00